Terminal Aerodrome Forecast
Issued by NWS

Home | Current Version | Previous Version | Graphics & Text | Print | Product List | Glossary On
Versions: 1 2 3 4 5 6 7 8 9 10 11 12 13 14
000
FTUS43 KFGF 142339
TAFBJI
TAF
KBJI 142339Z 1500/1524 31011KT P6SM OVC020
      TEMPO 1500/1502 3SM -SN
     FM151700 32013KT P6SM BKN015=

USA.gov is the U.S. government's official web portal to all federal, state and local government web resources and services.